createdAt,value
2022-08-26T00:07:21.206Z,1.1
2022-08-26T00:14:53.485Z,1.8
2022-08-26T00:22:25.795Z,1.6
2022-08-26T00:29:58.114Z,1.9
2022-08-26T00:37:30.398Z,1.3
2022-08-26T00:45:02.696Z,1.3
2022-08-26T00:52:42.558Z,1.4
2022-08-26T01:07:48.528Z,2.0
2022-08-26T01:15:22.153Z,2.6
2022-08-26T01:22:54.532Z,2.9
2022-08-26T01:30:26.849Z,2.8
2022-08-26T01:37:59.134Z,1.4
2022-08-26T01:45:31.486Z,1.9
2022-08-26T01:53:03.813Z,1.8
2022-08-26T02:00:36.275Z,1.7
2022-08-26T02:08:08.681Z,2.2
2022-08-26T02:15:41.001Z,1.8
2022-08-26T02:23:13.279Z,1.4
2022-08-26T02:30:45.758Z,1.5
2022-08-26T02:38:18.417Z,2.2
2022-08-26T02:45:50.700Z,1.7
2022-08-26T02:53:25.394Z,1.7
2022-08-26T03:00:57.999Z,2.6
2022-08-26T03:08:30.444Z,1.9
2022-08-26T03:16:02.869Z,1.4
2022-08-26T03:23:35.185Z,1.2
2022-08-26T03:31:07.548Z,2.2
2022-08-26T03:38:40.348Z,1.9
2022-08-26T03:46:12.692Z,1.5
2022-08-26T03:53:45.120Z,1.7
2022-08-26T04:01:17.444Z,1.5
2022-08-26T04:16:23.467Z,1.9
2022-08-26T04:23:58.433Z,1.8
2022-08-26T04:24:45.724Z,1.7
2022-08-26T04:25:33.124Z,2.6
2022-08-26T04:26:20.398Z,2.0
2022-08-26T04:27:08.138Z,2.2
2022-08-26T04:27:55.492Z,2.5
2022-08-26T04:28:42.807Z,1.8
2022-08-26T04:29:30.096Z,2.1
2022-08-26T04:30:17.400Z,2.4
2022-08-26T04:31:05.157Z,2.6
2022-08-26T04:31:55.373Z,1.6
2022-08-26T04:32:43.105Z,2.5
2022-08-26T04:33:32.549Z,2.4
2022-08-26T04:34:20.568Z,2.7
2022-08-26T04:35:07.979Z,2.1
2022-08-26T04:35:56.384Z,1.2
2022-08-26T04:36:43.912Z,2.9
2022-08-26T04:37:31.188Z,1.5
2022-08-26T04:38:19.884Z,2.8
2022-08-26T04:39:07.316Z,2.2
2022-08-26T04:39:54.683Z,2.2
2022-08-26T04:40:42.067Z,2.4
2022-08-26T04:41:34.237Z,3.0
2022-08-26T04:42:26.118Z,3.3
2022-08-26T04:43:13.712Z,2.6
2022-08-26T04:44:01.092Z,2.1
2022-08-26T04:44:48.600Z,2.3
2022-08-26T04:45:35.870Z,2.5
2022-08-26T04:46:23.324Z,2.4
2022-08-26T04:47:10.785Z,2.7
2022-08-26T04:47:58.620Z,2.5
2022-08-26T04:48:46.053Z,2.5
2022-08-26T04:49:35.045Z,4.1
2022-08-26T04:50:22.897Z,2.9
2022-08-26T04:51:10.759Z,2.7
2022-08-26T04:51:58.358Z,2.4
2022-08-26T04:52:45.637Z,2.6
2022-08-26T04:53:33.359Z,3.0
2022-08-26T04:54:21.056Z,4.2
2022-08-26T04:55:08.685Z,3.3
2022-08-26T04:55:56.073Z,2.5
2022-08-26T04:56:43.770Z,3.0
2022-08-26T04:57:31.995Z,2.2
2022-08-26T04:58:19.666Z,4.4
2022-08-26T04:59:07.220Z,3.5
2022-08-26T04:59:54.565Z,3.9
2022-08-26T05:00:41.847Z,2.2
2022-08-26T05:01:29.360Z,2.7
2022-08-26T05:02:16.656Z,3.3
2022-08-26T05:03:04.072Z,2.8
2022-08-26T05:03:51.505Z,2.6
2022-08-26T05:04:38.807Z,3.0
2022-08-26T05:05:26.237Z,3.1
2022-08-26T05:06:13.615Z,3.0
2022-08-26T05:07:02.890Z,3.2
2022-08-26T05:07:50.400Z,3.4
2022-08-26T05:08:38.189Z,2.7
2022-08-26T05:09:25.731Z,3.1
2022-08-26T05:10:13.004Z,2.9
2022-08-26T05:11:52.087Z,3.6
2022-08-26T05:12:39.736Z,3.8
2022-08-26T05:13:27.971Z,3.1
2022-08-26T05:14:15.279Z,3.8
2022-08-26T05:15:02.548Z,3.4
2022-08-26T05:15:50.538Z,3.7
2022-08-26T05:16:40.376Z,3.6
2022-08-26T05:17:27.848Z,4.4
2022-08-26T05:18:15.153Z,3.7
2022-08-26T05:19:03.295Z,4.3
2022-08-26T05:19:50.678Z,2.8
2022-08-26T05:20:38.115Z,2.4
2022-08-26T05:21:26.442Z,4.1
2022-08-26T05:22:14.360Z,3.6
2022-08-26T05:23:02.335Z,4.1
2022-08-26T05:23:49.843Z,3.6
2022-08-26T05:24:37.142Z,3.8
2022-08-26T05:25:25.395Z,3.8
2022-08-26T05:26:14.766Z,3.5
2022-08-26T05:27:58.844Z,4.7
2022-08-26T05:28:46.248Z,3.8
2022-08-26T05:29:35.316Z,102.6
2022-08-26T05:30:22.943Z,36.4
2022-08-26T05:31:10.266Z,26.7
2022-08-26T05:31:57.619Z,18.6
2022-08-26T05:32:45.405Z,19.5
2022-08-26T05:33:32.911Z,13.1
2022-08-26T05:34:20.295Z,19.2
2022-08-26T05:35:08.737Z,13.3
2022-08-26T05:35:56.348Z,14.1
2022-08-26T05:36:44.316Z,11.0
2022-08-26T05:37:31.695Z,10.6
2022-08-26T05:38:19.102Z,10.9
2022-08-26T05:39:06.384Z,10.1
2022-08-26T05:39:53.708Z,8.8
2022-08-26T05:40:41.120Z,9.4
2022-08-26T05:41:34.133Z,9.8
2022-08-26T05:42:23.990Z,8.4
2022-08-26T05:43:11.929Z,8.7
2022-08-26T05:43:59.419Z,6.4
2022-08-26T05:44:55.675Z,5.5
2022-08-26T05:45:46.084Z,7.8
2022-08-26T05:46:33.776Z,5.8
2022-08-26T05:47:21.759Z,7.9
2022-08-26T05:48:10.644Z,8.4
2022-08-26T05:48:58.040Z,22.6
2022-08-26T05:49:45.428Z,23.8
2022-08-26T05:50:39.004Z,26.0
2022-08-26T05:51:26.408Z,24.0
2022-08-26T05:52:13.692Z,27.1
2022-08-26T05:53:00.987Z,22.6
2022-08-26T05:53:54.527Z,19.8
2022-08-26T05:54:42.320Z,19.6
2022-08-26T05:55:30.081Z,16.5
2022-08-26T05:56:17.760Z,14.2
2022-08-26T05:57:05.043Z,15.2
2022-08-26T05:57:52.976Z,13.8
2022-08-26T05:58:40.373Z,10.8
2022-08-26T05:59:27.678Z,14.9
2022-08-26T06:00:14.999Z,14.7
2022-08-26T06:01:02.383Z,11.0
2022-08-26T06:01:50.443Z,11.3
2022-08-26T06:02:37.829Z,11.9
2022-08-26T06:03:25.186Z,11.0
2022-08-26T06:04:12.552Z,14.6
2022-08-26T06:04:59.883Z,13.8
2022-08-26T06:05:47.192Z,17.8
2022-08-26T06:06:34.605Z,17.8
2022-08-26T06:07:22.183Z,19.5
2022-08-26T06:08:09.627Z,20.3
2022-08-26T06:08:57.222Z,17.5
2022-08-26T06:09:44.516Z,20.3
2022-08-26T06:10:33.408Z,18.7
2022-08-26T06:11:20.952Z,15.1
2022-08-26T06:12:08.246Z,14.1
2022-08-26T06:12:55.553Z,14.6
2022-08-26T06:13:42.932Z,16.1
2022-08-26T06:14:30.380Z,12.9
2022-08-26T06:15:18.006Z,10.1
2022-08-26T06:16:06.691Z,11.8
2022-08-26T06:16:54.160Z,11.5
2022-08-26T06:17:41.432Z,10.2
2022-08-26T06:18:28.906Z,9.6
2022-08-26T06:19:16.593Z,11.5
2022-08-26T06:20:04.140Z,24.2
2022-08-26T06:20:57.921Z,14.6
2022-08-26T06:21:45.566Z,15.5
2022-08-26T06:22:32.983Z,12.7
2022-08-26T06:23:21.171Z,16.0
2022-08-26T06:24:08.563Z,18.0
2022-08-26T06:24:55.847Z,19.7
2022-08-26T06:25:43.293Z,27.3
2022-08-26T06:26:30.710Z,25.2
2022-08-26T06:27:18.038Z,21.9
2022-08-26T06:28:06.948Z,20.6
2022-08-26T06:28:54.238Z,15.5
2022-08-26T06:29:41.540Z,17.0
2022-08-26T06:30:28.850Z,14.2
2022-08-26T06:31:16.337Z,14.8
2022-08-26T06:32:03.680Z,16.1
2022-08-26T06:32:50.985Z,15.4
2022-08-26T06:34:29.829Z,12.0
2022-08-26T06:35:17.636Z,10.4
2022-08-26T06:36:05.896Z,12.4
2022-08-26T06:36:53.247Z,10.2
2022-08-26T06:37:40.543Z,13.1
2022-08-26T06:38:28.525Z,15.2
2022-08-26T06:39:15.820Z,26.9
2022-08-26T06:40:03.167Z,21.4
2022-08-26T06:40:51.127Z,21.2
2022-08-26T06:41:42.797Z,24.0
2022-08-26T06:42:30.683Z,30.9
2022-08-26T06:43:18.580Z,20.6
2022-08-26T06:44:06.412Z,20.7
2022-08-26T06:44:53.719Z,20.1
2022-08-26T06:45:41.270Z,15.4
2022-08-26T06:46:28.661Z,15.3
2022-08-26T06:47:16.074Z,13.2
2022-08-26T06:48:03.463Z,14.1
2022-08-26T06:48:50.825Z,15.1
2022-08-26T06:49:38.131Z,12.5
2022-08-26T06:50:27.095Z,9.9
2022-08-26T06:51:14.824Z,12.9
2022-08-26T06:52:02.109Z,11.4
2022-08-26T06:52:49.388Z,10.0
2022-08-26T06:53:36.787Z,11.9
2022-08-26T06:54:24.091Z,21.4
2022-08-26T06:55:11.397Z,17.0
2022-08-26T06:55:59.111Z,23.0
2022-08-26T06:56:46.545Z,24.3
2022-08-26T06:57:35.245Z,33.0
2022-08-26T06:58:25.035Z,28.5
2022-08-26T06:59:12.581Z,24.3
2022-08-26T06:59:59.905Z,22.3
2022-08-26T07:00:47.642Z,20.3
2022-08-26T07:01:35.041Z,15.1
2022-08-26T07:02:22.829Z,18.0
2022-08-26T07:03:10.894Z,15.5
2022-08-26T07:03:58.645Z,14.8
2022-08-26T07:04:47.953Z,15.0
2022-08-26T07:05:35.394Z,13.4
2022-08-26T07:06:22.703Z,13.1
2022-08-26T07:07:10.264Z,11.3
2022-08-26T07:07:57.583Z,11.6
2022-08-26T07:08:44.859Z,11.3
2022-08-26T07:09:32.147Z,10.9
2022-08-26T07:10:19.424Z,11.8
2022-08-26T07:11:06.717Z,10.4
2022-08-26T07:11:55.624Z,10.2
2022-08-26T07:12:43.327Z,9.5
2022-08-26T07:13:34.588Z,8.9
2022-08-26T07:14:22.068Z,9.1
2022-08-26T07:15:09.363Z,8.5
2022-08-26T07:15:57.276Z,8.7
2022-08-26T07:16:44.752Z,8.3
2022-08-26T07:17:32.067Z,7.2
2022-08-26T07:18:21.799Z,7.4
2022-08-26T07:19:11.050Z,5.9
2022-08-26T07:19:58.796Z,8.5
2022-08-26T07:20:46.761Z,8.2
2022-08-26T07:21:34.091Z,6.7
2022-08-26T07:22:21.637Z,6.5
2022-08-26T07:23:11.645Z,6.2
2022-08-26T07:24:01.447Z,8.1
2022-08-26T07:24:49.000Z,7.4
2022-08-26T07:25:36.312Z,5.8
2022-08-26T07:26:23.629Z,271.9
2022-08-26T07:27:12.302Z,49.0
2022-08-26T07:27:59.588Z,31.9
2022-08-26T07:28:46.892Z,34.8
2022-08-26T07:29:34.189Z,21.3
2022-08-26T07:30:21.755Z,22.3
2022-08-26T07:31:09.664Z,20.5
2022-08-26T07:31:57.084Z,19.6
2022-08-26T07:32:45.248Z,14.1
2022-08-26T07:33:32.551Z,14.9
2022-08-26T07:34:20.555Z,16.2
2022-08-26T07:35:07.847Z,15.6
2022-08-26T07:35:55.138Z,10.9
2022-08-26T07:36:42.439Z,10.6
2022-08-26T07:37:30.586Z,9.6
2022-08-26T07:38:25.519Z,9.3
2022-08-26T07:39:13.027Z,8.8
2022-08-26T07:40:00.372Z,7.6
2022-08-26T07:40:48.595Z,9.3
2022-08-26T07:41:36.268Z,10.4
2022-08-26T07:42:23.562Z,9.4
2022-08-26T07:43:11.328Z,12.9
2022-08-26T07:43:59.541Z,33.3
2022-08-26T07:44:46.960Z,31.8
2022-08-26T07:45:34.265Z,35.8
2022-08-26T07:46:29.949Z,26.5
2022-08-26T07:47:25.789Z,25.8
2022-08-26T07:48:13.657Z,28.6
2022-08-26T07:49:01.096Z,21.8
2022-08-26T07:49:48.423Z,16.4
2022-08-26T07:50:50.389Z,17.1
2022-08-26T07:51:37.555Z,16.1
2022-08-26T07:52:26.953Z,16.2
2022-08-26T07:53:14.627Z,12.5
2022-08-26T07:54:05.421Z,9.3
2022-08-26T07:54:52.763Z,11.8
2022-08-26T07:55:40.026Z,8.0
2022-08-26T07:56:27.363Z,9.3
2022-08-26T07:57:14.639Z,10.4
2022-08-26T07:58:01.920Z,9.4
2022-08-26T07:58:51.432Z,8.6
2022-08-26T07:59:39.259Z,7.8
2022-08-26T08:00:27.256Z,7.5
2022-08-26T08:01:14.701Z,8.5
2022-08-26T08:02:02.060Z,20.7
2022-08-26T08:02:49.380Z,29.9
2022-08-26T08:03:38.494Z,30.3
2022-08-26T08:04:26.688Z,27.1
2022-08-26T08:05:14.172Z,22.6
2022-08-26T08:06:01.542Z,20.9
2022-08-26T08:06:48.840Z,19.0
2022-08-26T08:07:44.444Z,14.3
2022-08-26T08:08:32.747Z,16.7
2022-08-26T08:09:20.183Z,13.8
2022-08-26T08:10:11.600Z,11.5
2022-08-26T08:11:47.004Z,8.6
2022-08-26T08:12:35.427Z,7.8
2022-08-26T08:13:22.903Z,8.8
2022-08-26T08:14:11.666Z,8.0
2022-08-26T08:14:59.219Z,9.5
2022-08-26T08:15:46.869Z,7.8
2022-08-26T08:16:41.888Z,9.5
2022-08-26T08:17:33.490Z,9.0
2022-08-26T08:18:20.879Z,8.4
2022-08-26T08:19:08.195Z,7.1
2022-08-26T08:19:55.613Z,14.0
2022-08-26T08:20:47.688Z,26.1
2022-08-26T08:21:40.196Z,69.8
2022-08-26T08:22:27.615Z,86.2
2022-08-26T08:23:15.365Z,92.5
2022-08-26T08:24:02.736Z,89.7
2022-08-26T08:24:53.020Z,88.5
2022-08-26T08:25:40.580Z,72.8
2022-08-26T08:26:28.001Z,61.6
2022-08-26T08:27:16.456Z,53.0
2022-08-26T08:28:06.433Z,50.6
2022-08-26T08:28:53.825Z,65.3
2022-08-26T08:29:41.923Z,74.9
2022-08-26T08:30:29.260Z,81.7
2022-08-26T08:31:19.108Z,60.1
2022-08-26T08:32:11.623Z,62.2
2022-08-26T08:33:02.788Z,60.8
2022-08-26T08:33:50.213Z,64.4
2022-08-26T08:35:31.301Z,86.1
2022-08-26T08:36:20.466Z,93.3
2022-08-26T08:37:10.664Z,89.3
2022-08-26T08:37:58.228Z,82.9
2022-08-26T08:38:45.544Z,82.2
2022-08-26T08:39:32.852Z,77.1
2022-08-26T08:40:20.281Z,62.4
2022-08-26T08:41:08.117Z,56.6
2022-08-26T08:41:55.712Z,52.5
2022-08-26T08:42:43.049Z,47.7
2022-08-26T08:43:30.457Z,38.3
2022-08-26T08:44:17.799Z,31.9
2022-08-26T08:45:05.276Z,35.0
2022-08-26T08:45:52.632Z,33.3
2022-08-26T08:46:40.508Z,31.6
2022-08-26T08:47:27.983Z,38.2
2022-08-26T08:48:15.545Z,36.5
2022-08-26T08:49:03.658Z,34.9
2022-08-26T08:49:50.959Z,29.2
2022-08-26T08:50:38.597Z,26.7
2022-08-26T08:51:28.658Z,24.4
2022-08-26T08:52:16.086Z,20.4
2022-08-26T08:53:04.085Z,18.9
2022-08-26T08:53:56.293Z,18.9
2022-08-26T08:54:43.631Z,36.5
2022-08-26T08:55:31.264Z,24.2
2022-08-26T08:56:18.636Z,30.9
2022-08-26T08:57:05.944Z,36.5
2022-08-26T08:57:53.824Z,34.0
2022-08-26T08:58:41.237Z,33.0
2022-08-26T08:59:30.125Z,32.4
2022-08-26T09:00:17.480Z,29.9
2022-08-26T09:01:05.593Z,27.1
2022-08-26T09:01:54.000Z,21.3
2022-08-26T09:02:41.720Z,17.9
2022-08-26T09:03:29.689Z,20.9
2022-08-26T09:04:17.434Z,20.9
2022-08-26T09:05:04.887Z,27.9
2022-08-26T09:05:52.179Z,29.6
2022-08-26T09:06:39.561Z,30.1
2022-08-26T09:07:28.850Z,26.5
2022-08-26T09:08:19.924Z,24.6
2022-08-26T09:09:07.338Z,22.7
2022-08-26T09:09:54.770Z,21.2
2022-08-26T09:10:42.092Z,21.1
2022-08-26T09:11:30.073Z,16.9
2022-08-26T09:12:17.732Z,20.8
2022-08-26T09:13:07.255Z,25.7
2022-08-26T09:13:55.917Z,23.8
2022-08-26T09:14:43.537Z,27.9
2022-08-26T09:15:30.860Z,27.0
2022-08-26T09:16:19.012Z,21.6
2022-08-26T09:17:06.754Z,21.6
2022-08-26T09:17:55.063Z,18.7
2022-08-26T09:18:42.424Z,17.2
2022-08-26T09:19:33.527Z,16.3
2022-08-26T09:20:20.964Z,14.8
2022-08-26T09:21:08.301Z,13.1
2022-08-26T09:21:55.619Z,12.6
2022-08-26T09:22:44.411Z,10.5
2022-08-26T09:23:31.769Z,10.3
2022-08-26T09:24:19.127Z,11.6
2022-08-26T09:25:11.208Z,10.4
2022-08-26T09:25:58.604Z,8.2
2022-08-26T09:26:45.918Z,8.8
2022-08-26T09:27:34.781Z,10.3
2022-08-26T09:28:24.944Z,9.6
2022-08-26T09:29:12.379Z,10.0
2022-08-26T09:29:59.703Z,8.7
2022-08-26T09:30:47.919Z,9.0
2022-08-26T09:31:35.540Z,11.1
2022-08-26T09:32:22.870Z,10.2
2022-08-26T09:33:11.032Z,12.4
2022-08-26T09:33:58.635Z,12.0
2022-08-26T09:34:46.024Z,11.8
2022-08-26T09:35:33.385Z,11.6
2022-08-26T09:36:20.709Z,12.2
2022-08-26T09:37:08.840Z,9.3
2022-08-26T09:37:57.147Z,9.0
2022-08-26T09:38:44.481Z,10.5
2022-08-26T09:39:31.792Z,10.3
2022-08-26T09:40:19.158Z,7.7
2022-08-26T09:41:07.749Z,7.6
2022-08-26T09:41:56.191Z,7.0
2022-08-26T09:42:43.548Z,8.2
2022-08-26T09:43:31.024Z,7.4
2022-08-26T09:44:18.347Z,5.1
2022-08-26T09:45:06.247Z,6.1
2022-08-26T09:45:58.482Z,7.5
2022-08-26T09:46:46.677Z,7.1
2022-08-26T09:47:34.228Z,6.9
2022-08-26T09:48:22.139Z,6.7
2022-08-26T09:49:10.528Z,10.8
2022-08-26T09:49:58.344Z,10.9
2022-08-26T09:50:45.653Z,12.3
2022-08-26T09:51:33.602Z,10.7
2022-08-26T09:52:21.458Z,10.6
2022-08-26T09:53:09.863Z,9.2
2022-08-26T09:54:00.082Z,10.6
2022-08-26T09:54:47.519Z,11.3
2022-08-26T09:55:35.029Z,9.9
2022-08-26T09:56:22.563Z,10.1
2022-08-26T09:57:11.205Z,9.9
2022-08-26T09:58:03.570Z,9.1
2022-08-26T09:58:55.803Z,8.0
2022-08-26T09:59:43.518Z,7.8
2022-08-26T10:00:31.382Z,6.1
2022-08-26T10:01:19.444Z,8.2
2022-08-26T10:02:06.893Z,5.3
2022-08-26T10:02:59.664Z,5.3
2022-08-26T10:03:47.302Z,4.7
2022-08-26T10:04:36.413Z,5.2
2022-08-26T10:05:23.760Z,6.1
2022-08-26T10:06:11.094Z,5.8
2022-08-26T10:06:58.417Z,5.5
2022-08-26T10:14:30.766Z,5.3
2022-08-26T10:22:03.092Z,5.6
2022-08-26T10:29:35.797Z,5.8
2022-08-26T10:37:15.442Z,5.9
2022-08-26T10:44:48.955Z,5.2
2022-08-26T10:53:04.016Z,4.3
2022-08-26T10:53:51.737Z,4.0
2022-08-26T10:54:39.522Z,4.5
2022-08-26T10:55:26.855Z,5.4
2022-08-26T10:56:15.760Z,4.3
2022-08-26T10:57:06.564Z,4.2
2022-08-26T10:57:57.113Z,4.7
2022-08-26T10:58:44.715Z,4.5
2022-08-26T10:59:32.079Z,5.3
2022-08-26T11:00:19.541Z,5.0
2022-08-26T11:01:10.179Z,4.5
2022-08-26T11:01:57.929Z,5.0
2022-08-26T11:02:47.093Z,8.5
2022-08-26T11:03:34.964Z,8.5
2022-08-26T11:04:22.624Z,7.5
2022-08-26T11:05:10.226Z,9.0
2022-08-26T11:05:57.566Z,7.8
2022-08-26T11:06:45.187Z,9.5
2022-08-26T11:07:32.526Z,9.9
2022-08-26T11:08:19.972Z,8.5
2022-08-26T11:09:08.113Z,6.6
2022-08-26T11:09:55.644Z,6.6
2022-08-26T11:10:43.065Z,8.2
2022-08-26T11:11:30.408Z,6.2
2022-08-26T11:12:18.137Z,5.7
2022-08-26T11:13:05.561Z,5.8
2022-08-26T11:13:52.877Z,5.8
2022-08-26T11:14:53.264Z,5.8
2022-08-26T11:15:37.547Z,6.4
2022-08-26T11:16:24.948Z,6.8
2022-08-26T11:17:14.057Z,5.6
2022-08-26T11:18:01.377Z,7.5
2022-08-26T11:18:48.694Z,7.1
2022-08-26T11:19:59.709Z,10.6
2022-08-26T11:20:36.007Z,14.1
2022-08-26T11:21:23.459Z,14.3
2022-08-26T11:22:17.025Z,10.9
2022-08-26T11:23:04.888Z,14.8
2022-08-26T11:23:52.943Z,15.0
2022-08-26T11:24:40.553Z,12.2
2022-08-26T11:25:30.959Z,13.8
2022-08-26T11:26:35.985Z,13.7
2022-08-26T11:27:15.790Z,11.8
2022-08-26T11:28:04.507Z,10.3
2022-08-26T11:28:52.323Z,10.6
2022-08-26T11:29:39.808Z,9.4
2022-08-26T11:30:27.124Z,6.9
2022-08-26T11:31:14.623Z,8.0
2022-08-26T11:32:02.627Z,6.8
2022-08-26T11:32:50.059Z,6.6
2022-08-26T11:33:37.437Z,8.2
2022-08-26T11:34:24.870Z,8.4
2022-08-26T11:35:12.227Z,11.6
2022-08-26T11:35:59.585Z,12.3
2022-08-26T11:36:57.051Z,12.3
2022-08-26T11:37:44.371Z,9.4
2022-08-26T11:38:31.671Z,10.2
2022-08-26T11:39:19.208Z,10.5
2022-08-26T11:40:06.646Z,9.9
2022-08-26T11:40:54.030Z,9.2
2022-08-26T11:41:41.350Z,12.5
2022-08-26T11:42:28.883Z,9.1
2022-08-26T11:43:16.214Z,8.6
2022-08-26T11:44:03.537Z,9.9
2022-08-26T11:44:52.157Z,11.7
2022-08-26T11:45:39.502Z,9.7
2022-08-26T11:46:27.079Z,8.9
2022-08-26T11:47:14.505Z,7.8
2022-08-26T11:48:03.083Z,7.7
2022-08-26T11:48:50.476Z,6.2
2022-08-26T11:49:37.792Z,7.0
2022-08-26T11:50:25.104Z,7.1
2022-08-26T11:51:13.356Z,7.0
2022-08-26T11:52:00.746Z,5.8
2022-08-26T11:52:48.311Z,6.1
2022-08-26T11:53:35.663Z,10.0
2022-08-26T11:54:35.582Z,9.8
2022-08-26T11:55:20.396Z,10.2
2022-08-26T11:56:10.940Z,9.7
2022-08-26T11:56:59.080Z,9.7
2022-08-26T11:57:49.379Z,9.1
2022-08-26T11:58:37.881Z,7.6
2022-08-26T11:59:25.262Z,9.0
2022-08-26T12:00:14.192Z,7.6
2022-08-26T12:01:03.553Z,7.6
2022-08-26T12:01:51.057Z,7.7
2022-08-26T12:02:38.368Z,8.6
2022-08-26T12:03:26.007Z,9.1
2022-08-26T12:04:13.798Z,8.6
2022-08-26T12:05:01.476Z,9.1
2022-08-26T12:05:49.208Z,6.8
2022-08-26T12:06:41.983Z,6.6
2022-08-26T12:07:32.441Z,7.8
2022-08-26T12:09:09.057Z,6.2
2022-08-26T12:09:56.496Z,5.5
2022-08-26T12:10:43.859Z,6.3
2022-08-26T12:11:31.347Z,6.9
2022-08-26T12:12:19.339Z,7.7
2022-08-26T12:13:06.726Z,7.8
2022-08-26T12:13:54.040Z,7.8
2022-08-26T12:14:41.449Z,5.9
2022-08-26T12:15:29.550Z,7.2
2022-08-26T12:16:17.067Z,6.3
2022-08-26T12:17:04.461Z,6.3
2022-08-26T12:17:57.117Z,6.0
2022-08-26T12:18:44.894Z,6.7
2022-08-26T12:19:32.591Z,9.5
2022-08-26T12:20:20.128Z,7.2
2022-08-26T12:21:07.577Z,8.9
2022-08-26T12:21:55.013Z,7.4
2022-08-26T12:22:42.318Z,5.8
2022-08-26T12:23:36.434Z,4.9
2022-08-26T12:24:23.929Z,4.8
2022-08-26T12:25:14.068Z,4.6
2022-08-26T12:26:01.630Z,6.0
2022-08-26T12:26:49.848Z,6.4
2022-08-26T12:27:37.308Z,6.6
2022-08-26T12:28:24.618Z,7.2
2022-08-26T12:29:26.930Z,7.9
2022-08-26T12:30:09.229Z,6.8
2022-08-26T12:30:59.616Z,6.4
2022-08-26T12:31:48.363Z,8.5
2022-08-26T12:32:35.788Z,7.9
2022-08-26T12:33:23.421Z,7.7
2022-08-26T12:34:17.445Z,10.6
2022-08-26T12:35:57.297Z,9.6
2022-08-26T12:36:44.916Z,7.6
2022-08-26T12:37:32.264Z,7.2
2022-08-26T12:38:20.968Z,6.8
2022-08-26T12:39:08.418Z,8.6
2022-08-26T12:39:55.762Z,6.9
2022-08-26T12:40:43.098Z,6.8
2022-08-26T12:41:30.519Z,6.0
2022-08-26T12:42:17.825Z,5.2
2022-08-26T12:43:05.342Z,5.6
2022-08-26T12:43:52.664Z,5.5
2022-08-26T12:44:40.001Z,5.6
2022-08-26T12:45:27.391Z,6.8
2022-08-26T12:46:14.747Z,7.0
2022-08-26T12:47:02.057Z,7.3
2022-08-26T12:47:49.365Z,7.6
2022-08-26T12:48:36.788Z,6.1
2022-08-26T12:49:24.101Z,6.5
2022-08-26T12:50:11.459Z,4.8
2022-08-26T12:50:58.833Z,6.0
2022-08-26T12:51:46.134Z,5.9
2022-08-26T12:52:33.451Z,6.4
2022-08-26T12:53:20.871Z,5.7
2022-08-26T12:54:08.192Z,4.9
2022-08-26T12:54:56.950Z,4.7
2022-08-26T12:55:44.536Z,5.1
2022-08-26T12:56:31.827Z,5.6
2022-08-26T12:57:19.152Z,6.0
2022-08-26T12:58:06.477Z,6.1
2022-08-26T12:59:46.139Z,7.9
2022-08-26T13:00:33.510Z,5.8
2022-08-26T13:01:21.024Z,6.0
2022-08-26T13:02:08.465Z,6.0
2022-08-26T13:02:55.908Z,6.3
2022-08-26T13:03:43.223Z,6.0
2022-08-26T13:04:30.561Z,4.8
2022-08-26T13:05:17.973Z,5.5
2022-08-26T13:06:05.301Z,4.9
2022-08-26T13:06:52.619Z,4.8
2022-08-26T13:07:40.050Z,4.8
2022-08-26T13:08:27.386Z,3.9
2022-08-26T13:09:14.697Z,5.8
2022-08-26T13:10:02.155Z,4.5
2022-08-26T13:10:49.464Z,5.6
2022-08-26T13:11:36.816Z,5.2
2022-08-26T13:12:24.227Z,4.7
2022-08-26T13:13:11.544Z,4.7
2022-08-26T13:13:58.899Z,5.4
2022-08-26T13:14:46.251Z,4.4
2022-08-26T13:15:33.577Z,5.9
2022-08-26T13:16:21.006Z,7.1
2022-08-26T13:17:08.404Z,7.0
2022-08-26T13:17:55.708Z,6.2
2022-08-26T13:18:45.741Z,7.6
2022-08-26T13:19:33.123Z,5.2
2022-08-26T13:20:20.611Z,4.4
2022-08-26T13:21:08.196Z,5.5
2022-08-26T13:21:55.600Z,5.9
2022-08-26T13:22:42.921Z,5.0
2022-08-26T13:23:30.261Z,4.1
2022-08-26T13:24:17.633Z,6.0
2022-08-26T13:25:04.949Z,5.3
2022-08-26T13:25:52.257Z,5.9
2022-08-26T13:26:39.648Z,5.3
2022-08-26T13:27:27.419Z,4.7
2022-08-26T13:28:14.733Z,5.1
2022-08-26T13:29:02.707Z,6.0
2022-08-26T13:29:50.716Z,3.8
2022-08-26T13:30:38.191Z,5.3
2022-08-26T13:31:27.121Z,5.0
2022-08-26T13:32:14.516Z,5.4
2022-08-26T13:33:02.200Z,4.2
2022-08-26T13:34:39.274Z,4.8
2022-08-26T13:35:26.871Z,4.7
2022-08-26T13:36:14.163Z,3.6
2022-08-26T13:37:01.474Z,4.4
2022-08-26T13:37:48.894Z,4.3
2022-08-26T13:38:36.206Z,5.7
2022-08-26T13:39:23.546Z,6.7
2022-08-26T13:40:11.074Z,7.1
2022-08-26T13:40:58.436Z,8.0
2022-08-26T13:41:45.757Z,7.9
2022-08-26T13:42:33.159Z,7.6
2022-08-26T13:43:21.878Z,6.7
2022-08-26T13:44:09.190Z,6.7
2022-08-26T13:44:56.500Z,8.2
2022-08-26T13:45:43.849Z,6.3
2022-08-26T13:46:31.222Z,6.8
2022-08-26T13:47:18.592Z,6.1
2022-08-26T13:48:06.452Z,6.5
2022-08-26T13:48:53.836Z,5.0
2022-08-26T13:49:41.234Z,6.9
2022-08-26T13:50:28.547Z,10.6
2022-08-26T13:51:15.910Z,11.1
2022-08-26T13:52:03.258Z,9.7
2022-08-26T13:52:50.573Z,8.1
2022-08-26T13:53:37.890Z,8.8
2022-08-26T13:54:29.034Z,7.1
2022-08-26T13:55:16.366Z,9.1
2022-08-26T13:56:05.962Z,7.2
2022-08-26T13:56:54.326Z,5.3
2022-08-26T13:57:41.750Z,5.8
2022-08-26T13:58:29.302Z,5.7
2022-08-26T13:59:16.699Z,5.6
2022-08-26T14:00:04.068Z,5.8
2022-08-26T14:00:51.391Z,6.2
2022-08-26T14:01:38.732Z,5.0
2022-08-26T14:02:26.337Z,4.9
2022-08-26T14:03:13.731Z,6.5
2022-08-26T14:04:01.065Z,5.3
2022-08-26T14:04:48.464Z,4.9
2022-08-26T14:05:35.815Z,4.8
2022-08-26T14:06:23.231Z,4.7
2022-08-26T14:07:10.623Z,4.5
2022-08-26T14:07:57.960Z,5.4
2022-08-26T14:08:45.972Z,5.2
2022-08-26T14:09:36.589Z,6.0
2022-08-26T14:10:25.671Z,6.8
2022-08-26T14:11:12.980Z,4.5
2022-08-26T14:12:02.636Z,5.7
2022-08-26T14:12:50.149Z,5.7
2022-08-26T14:13:37.633Z,5.6
2022-08-26T14:14:24.954Z,5.5
2022-08-26T14:15:12.272Z,5.2
2022-08-26T14:15:59.713Z,3.7
2022-08-26T14:16:58.619Z,5.4
2022-08-26T14:17:44.324Z,3.9
2022-08-26T14:18:31.755Z,5.3
2022-08-26T14:19:19.261Z,5.2
2022-08-26T14:20:11.612Z,5.5
2022-08-26T14:20:59.019Z,4.9
2022-08-26T14:21:46.285Z,4.4
2022-08-26T14:22:33.684Z,6.3
2022-08-26T14:23:21.084Z,7.1
2022-08-26T14:24:08.413Z,5.6
2022-08-26T14:24:55.696Z,6.5
2022-08-26T14:25:43.092Z,7.5
2022-08-26T14:26:30.393Z,6.7
2022-08-26T14:27:17.659Z,6.0
2022-08-26T14:28:05.072Z,6.3
2022-08-26T14:28:52.360Z,5.3
2022-08-26T14:29:39.632Z,5.7
2022-08-26T14:30:27.043Z,4.9
2022-08-26T14:31:14.364Z,4.4
2022-08-26T14:32:01.687Z,5.5
2022-08-26T14:32:49.091Z,4.3
2022-08-26T14:33:36.539Z,4.4
2022-08-26T14:34:23.815Z,4.9
2022-08-26T14:35:11.208Z,5.0
2022-08-26T14:35:58.496Z,4.9
2022-08-26T14:36:45.773Z,4.5
2022-08-26T14:37:33.177Z,4.5
2022-08-26T14:38:20.447Z,4.4
2022-08-26T14:39:07.700Z,3.8
2022-08-26T14:39:55.167Z,4.2
2022-08-26T14:40:42.500Z,3.6
2022-08-26T14:41:29.841Z,4.4
2022-08-26T14:42:17.196Z,5.0
2022-08-26T14:43:04.467Z,3.7
2022-08-26T14:43:51.753Z,4.0
2022-08-26T14:44:39.163Z,3.5
2022-08-26T14:45:26.475Z,3.7
2022-08-26T14:46:13.858Z,3.5
2022-08-26T14:47:01.314Z,4.0
2022-08-26T14:47:48.748Z,4.9
2022-08-26T14:48:36.004Z,4.0
2022-08-26T14:49:23.475Z,4.0
2022-08-26T14:50:10.752Z,4.3
2022-08-26T14:51:00.431Z,4.8
2022-08-26T14:51:47.877Z,4.1
2022-08-26T14:52:35.183Z,4.2
2022-08-26T14:53:22.505Z,3.4
2022-08-26T14:54:09.913Z,4.0
2022-08-26T14:54:57.196Z,3.9
2022-08-26T14:55:44.513Z,3.9
2022-08-26T14:56:31.909Z,3.9
2022-08-26T14:57:19.175Z,3.6
2022-08-26T14:58:06.486Z,3.9
2022-08-26T14:58:53.875Z,4.6
2022-08-26T14:59:41.147Z,3.7
2022-08-26T15:00:28.424Z,3.7
2022-08-26T15:01:15.904Z,5.0
2022-08-26T15:02:03.362Z,4.7
2022-08-26T15:02:50.862Z,4.1
2022-08-26T15:03:38.349Z,3.4
2022-08-26T15:04:25.665Z,3.6
2022-08-26T15:05:13.120Z,4.0
2022-08-26T15:06:00.442Z,3.2
2022-08-26T15:06:47.746Z,3.1
2022-08-26T15:07:35.056Z,3.6
2022-08-26T15:08:22.493Z,3.3
2022-08-26T15:09:09.825Z,4.3
2022-08-26T15:09:57.140Z,3.4
2022-08-26T15:10:44.555Z,3.6
2022-08-26T15:11:31.856Z,3.7
2022-08-26T15:12:20.407Z,3.9
2022-08-26T15:13:07.823Z,3.4
2022-08-26T15:13:55.150Z,3.6
2022-08-26T15:14:42.472Z,3.0
2022-08-26T15:15:29.881Z,4.1
2022-08-26T15:16:17.300Z,3.8
2022-08-26T15:17:04.634Z,3.2
2022-08-26T15:17:52.049Z,3.7
2022-08-26T15:18:39.354Z,3.1
2022-08-26T15:19:26.657Z,4.0
2022-08-26T15:20:14.078Z,2.9
2022-08-26T15:21:01.377Z,4.0
2022-08-26T15:21:48.700Z,2.9
2022-08-26T15:22:36.092Z,3.5
2022-08-26T15:23:23.627Z,3.6
2022-08-26T15:24:10.942Z,3.6
2022-08-26T15:24:58.331Z,3.2
2022-08-26T15:25:45.644Z,3.0
2022-08-26T15:33:17.964Z,4.3
2022-08-26T15:40:50.287Z,3.9
2022-08-26T15:48:22.656Z,3.4
2022-08-26T15:55:54.997Z,3.3
2022-08-26T16:03:28.664Z,3.3
2022-08-26T16:11:03.369Z,4.1
2022-08-26T16:18:35.978Z,4.7
2022-08-26T16:26:08.297Z,3.4
2022-08-26T16:33:43.028Z,3.7
2022-08-26T16:41:15.397Z,3.6
2022-08-26T16:48:47.740Z,3.4
2022-08-26T16:56:20.098Z,2.6
2022-08-26T17:03:52.417Z,3.4
2022-08-26T17:11:24.761Z,3.9
2022-08-26T17:18:57.105Z,2.8
2022-08-26T17:26:29.418Z,3.7
2022-08-26T17:34:01.745Z,2.4
2022-08-26T17:41:34.073Z,3.1
2022-08-26T17:49:06.393Z,3.4